createdAt,value
2018-06-30T00:00:14.732Z,547
2018-06-30T00:01:22.348Z,547
2018-06-30T00:02:30.264Z,547
2018-06-30T00:03:37.346Z,548
2018-06-30T00:04:45.258Z,548
2018-06-30T00:05:52.870Z,549
2018-06-30T00:07:00.764Z,549
2018-06-30T00:08:08.670Z,550
2018-06-30T00:09:16.573Z,549
2018-06-30T00:10:24.548Z,549
2018-06-30T00:11:32.498Z,549
2018-06-30T00:12:40.386Z,549
2018-06-30T00:13:48.307Z,549
2018-06-30T00:14:56.193Z,549
2018-06-30T00:16:04.085Z,549
2018-06-30T00:17:11.975Z,550
2018-06-30T00:18:19.888Z,550
2018-06-30T00:19:27.778Z,550
2018-06-30T00:20:35.381Z,550
2018-06-30T00:21:43.264Z,550
2018-06-30T00:22:51.173Z,550
2018-06-30T00:23:59.064Z,548
2018-06-30T00:25:06.954Z,549
2018-06-30T00:26:14.569Z,549
2018-06-30T00:27:22.503Z,549
2018-06-30T00:28:30.400Z,547
2018-06-30T00:29:38.289Z,548
2018-06-30T00:30:46.177Z,548
2018-06-30T00:31:54.082Z,548
2018-06-30T00:33:01.970Z,548
2018-06-30T00:34:09.859Z,549
2018-06-30T00:35:17.764Z,548
2018-06-30T00:36:25.656Z,548
2018-06-30T00:37:33.545Z,548
2018-06-30T00:38:41.435Z,548
2018-06-30T00:39:49.328Z,548
2018-06-30T00:40:57.235Z,549
2018-06-30T00:42:04.851Z,548
2018-06-30T00:43:12.738Z,547
2018-06-30T00:44:20.630Z,546
2018-06-30T00:45:28.261Z,547
2018-06-30T00:46:36.153Z,547
2018-06-30T00:47:44.052Z,545
2018-06-30T00:48:51.944Z,545
2018-06-30T00:49:59.851Z,545
2018-06-30T00:51:07.749Z,544
2018-06-30T00:52:15.748Z,545
2018-06-30T00:53:23.650Z,545
2018-06-30T00:54:31.570Z,545
2018-06-30T00:55:39.187Z,545
2018-06-30T00:56:46.796Z,545
2018-06-30T00:57:54.695Z,546
2018-06-30T00:59:02.327Z,545
2018-06-30T01:00:10.210Z,545
2018-06-30T01:01:17.835Z,546
2018-06-30T01:02:25.223Z,545
2018-06-30T01:03:33.131Z,545
2018-06-30T01:04:41.019Z,545
2018-06-30T01:05:48.908Z,545
2018-06-30T01:06:56.805Z,545
2018-06-30T01:08:04.707Z,544
2018-06-30T01:09:12.595Z,543
2018-06-30T01:10:20.242Z,543
2018-06-30T01:11:28.129Z,543
2018-06-30T01:12:35.761Z,543
2018-06-30T01:13:43.646Z,543
2018-06-30T01:14:51.533Z,544
2018-06-30T01:15:59.140Z,543
2018-06-30T01:17:07.046Z,543
2018-06-30T01:18:14.936Z,542
2018-06-30T01:19:22.824Z,543
2018-06-30T01:20:30.745Z,543
2018-06-30T01:21:38.643Z,543
2018-06-30T01:22:46.562Z,543
2018-06-30T01:23:54.452Z,542
2018-06-30T01:25:02.061Z,542
2018-06-30T01:26:09.961Z,541
2018-06-30T01:27:17.858Z,541
2018-06-30T01:28:25.760Z,542
2018-06-30T01:29:33.660Z,542
2018-06-30T01:30:41.284Z,542
2018-06-30T01:31:49.170Z,542
2018-06-30T01:32:57.064Z,541
2018-06-30T01:34:04.957Z,542
2018-06-30T01:35:12.865Z,541
2018-06-30T01:36:20.755Z,541
2018-06-30T01:37:28.109Z,541
2018-06-30T01:38:35.999Z,541
2018-06-30T01:39:43.904Z,542
2018-06-30T01:40:51.799Z,542
2018-06-30T01:41:59.686Z,542
2018-06-30T01:43:07.577Z,542
2018-06-30T01:44:15.477Z,542
2018-06-30T01:45:23.359Z,541
2018-06-30T01:46:30.995Z,540
2018-06-30T01:47:38.608Z,541
2018-06-30T01:48:46.508Z,541
2018-06-30T01:49:54.125Z,541
2018-06-30T01:51:02.012Z,540
2018-06-30T01:52:09.906Z,541
2018-06-30T01:53:17.812Z,541
2018-06-30T01:54:25.698Z,542
2018-06-30T01:55:33.603Z,542
2018-06-30T01:56:41.491Z,542
2018-06-30T01:57:49.399Z,543
2018-06-30T01:58:57.292Z,541
2018-06-30T02:00:04.916Z,542
2018-06-30T02:01:12.809Z,540
2018-06-30T02:02:20.710Z,541
2018-06-30T02:03:28.594Z,541
2018-06-30T02:04:36.494Z,540
2018-06-30T02:05:44.419Z,541
2018-06-30T02:06:52.330Z,541
2018-06-30T02:08:00.225Z,541
2018-06-30T02:09:08.113Z,541
2018-06-30T02:10:16.004Z,541
2018-06-30T02:11:23.906Z,540
2018-06-30T02:12:31.794Z,541
2018-06-30T02:13:39.705Z,541
2018-06-30T02:14:47.589Z,541
2018-06-30T02:15:55.491Z,542
2018-06-30T02:17:03.378Z,541
2018-06-30T02:18:11.012Z,541
2018-06-30T02:19:18.909Z,541
2018-06-30T02:20:26.807Z,541
2018-06-30T02:21:34.941Z,540
2018-06-30T02:22:42.876Z,540
2018-06-30T02:23:50.765Z,540
2018-06-30T02:24:58.391Z,540
2018-06-30T02:26:06.288Z,540
2018-06-30T02:27:14.190Z,540
2018-06-30T02:28:22.077Z,540
2018-06-30T02:29:29.978Z,540
2018-06-30T02:30:37.862Z,540
2018-06-30T02:31:45.771Z,539
2018-06-30T02:32:53.661Z,540
2018-06-30T02:34:01.562Z,540
2018-06-30T02:35:09.450Z,539
2018-06-30T02:36:17.361Z,539
2018-06-30T02:37:25.252Z,540
2018-06-30T02:38:33.167Z,540
2018-06-30T02:39:41.053Z,540
2018-06-30T02:40:48.957Z,538
2018-06-30T02:41:56.849Z,538
2018-06-30T02:43:04.747Z,539
2018-06-30T02:44:12.638Z,539
2018-06-30T02:45:20.546Z,538
2018-06-30T02:46:28.438Z,539
2018-06-30T02:47:36.065Z,539
2018-06-30T02:48:43.956Z,539
2018-06-30T02:49:51.871Z,539
2018-06-30T02:50:59.757Z,539
2018-06-30T02:52:07.649Z,539
2018-06-30T02:53:15.539Z,539
2018-06-30T02:54:23.443Z,539
2018-06-30T02:55:31.335Z,539
2018-06-30T02:56:39.248Z,539
2018-06-30T02:57:47.142Z,539
2018-06-30T02:58:55.047Z,539
2018-06-30T03:00:02.665Z,538
2018-06-30T03:01:10.566Z,539
2018-06-30T03:02:18.446Z,538
2018-06-30T03:03:26.353Z,539
2018-06-30T03:04:34.239Z,539
2018-06-30T03:05:41.870Z,539
2018-06-30T03:06:49.767Z,538
2018-06-30T03:07:57.667Z,539
2018-06-30T03:09:05.552Z,539
2018-06-30T03:10:13.167Z,540
2018-06-30T03:11:20.777Z,539
2018-06-30T03:12:28.679Z,540
2018-06-30T03:13:36.296Z,540
2018-06-30T03:14:44.196Z,539
2018-06-30T03:15:52.087Z,539
2018-06-30T03:16:59.987Z,540
2018-06-30T03:18:07.884Z,539
2018-06-30T03:19:15.768Z,539
2018-06-30T03:20:23.657Z,538
2018-06-30T03:21:31.280Z,539
2018-06-30T03:22:39.169Z,540
2018-06-30T03:23:47.079Z,539
2018-06-30T03:24:54.964Z,539
2018-06-30T03:26:02.863Z,539
2018-06-30T03:27:10.474Z,539
2018-06-30T03:28:18.369Z,540
2018-06-30T03:29:26.260Z,539
2018-06-30T03:30:34.160Z,539
2018-06-30T03:31:42.502Z,539
2018-06-30T03:32:50.296Z,539
2018-06-30T03:33:58.176Z,538
2018-06-30T03:35:06.080Z,539
2018-06-30T03:36:13.962Z,538
2018-06-30T03:37:21.575Z,539
2018-06-30T03:38:29.587Z,538
2018-06-30T03:39:37.525Z,538
2018-06-30T03:40:45.413Z,538
2018-06-30T03:41:53.299Z,538
2018-06-30T03:43:00.912Z,539
2018-06-30T03:44:08.813Z,538
2018-06-30T03:45:16.704Z,538
2018-06-30T03:46:24.597Z,538
2018-06-30T03:47:32.488Z,538
2018-06-30T03:48:40.410Z,538
2018-06-30T03:49:48.292Z,539
2018-06-30T03:50:56.183Z,538
2018-06-30T03:52:04.076Z,538
2018-06-30T03:53:11.973Z,538
2018-06-30T03:54:19.863Z,538
2018-06-30T03:55:27.756Z,537
2018-06-30T03:56:35.653Z,538
2018-06-30T03:57:43.559Z,538
2018-06-30T03:58:51.449Z,537
2018-06-30T03:59:59.341Z,537
2018-06-30T04:01:07.226Z,537
2018-06-30T04:02:15.131Z,538
2018-06-30T04:03:23.025Z,537
2018-06-30T04:04:30.640Z,537
2018-06-30T04:05:38.531Z,537
2018-06-30T04:06:46.438Z,536
2018-06-30T04:07:54.337Z,536
2018-06-30T04:09:02.238Z,537
2018-06-30T04:10:10.151Z,537
2018-06-30T22:00:07.415Z,576
2018-06-30T22:01:15.307Z,574
2018-06-30T22:02:23.215Z,575
2018-06-30T22:03:31.104Z,575
2018-06-30T22:04:39.007Z,575
2018-06-30T22:05:46.896Z,575
2018-06-30T22:06:54.808Z,574
2018-06-30T22:08:02.700Z,573
2018-06-30T22:09:10.603Z,574
2018-06-30T22:10:18.222Z,573
2018-06-30T22:11:26.154Z,573
2018-06-30T22:12:34.277Z,574
2018-06-30T22:13:42.190Z,574
2018-06-30T22:14:50.083Z,575
2018-06-30T22:15:57.985Z,575
2018-06-30T22:17:05.880Z,575
2018-06-30T22:18:13.789Z,574
2018-06-30T22:19:21.705Z,574
2018-06-30T22:20:29.597Z,574
2018-06-30T22:21:37.492Z,574
2018-06-30T22:22:45.395Z,573
2018-06-30T22:23:53.009Z,573
2018-06-30T22:25:00.911Z,572
2018-06-30T22:26:08.548Z,573
2018-06-30T22:27:16.462Z,573
2018-06-30T22:28:24.073Z,573
2018-06-30T22:29:31.704Z,573
2018-06-30T22:30:39.596Z,573
2018-06-30T22:31:47.496Z,574
2018-06-30T22:32:55.383Z,574
2018-06-30T22:34:03.289Z,572
2018-06-30T22:35:11.382Z,573
2018-06-30T22:36:19.328Z,573
2018-06-30T22:37:27.216Z,572
2018-06-30T22:38:35.123Z,572
2018-06-30T22:39:42.736Z,571
2018-06-30T22:40:50.669Z,572
2018-06-30T22:41:58.284Z,572
2018-06-30T22:43:06.190Z,572
2018-06-30T22:44:14.084Z,571
2018-06-30T22:45:21.985Z,571
2018-06-30T22:46:29.872Z,571
2018-06-30T22:47:37.782Z,571
2018-06-30T22:48:45.676Z,570
2018-06-30T22:49:53.579Z,570
2018-06-30T22:51:01.472Z,571
2018-06-30T22:52:09.374Z,571
2018-06-30T22:53:17.261Z,572
2018-06-30T22:54:25.428Z,571
2018-06-30T22:55:33.560Z,571
2018-06-30T22:56:41.475Z,570
2018-06-30T22:57:49.362Z,569
2018-06-30T22:58:56.992Z,570
2018-06-30T23:00:04.886Z,570
2018-06-30T23:01:12.785Z,571
2018-06-30T23:02:20.686Z,571
2018-06-30T23:03:28.312Z,569
2018-06-30T23:04:36.207Z,570
2018-06-30T23:05:44.112Z,570
2018-06-30T23:06:51.998Z,570
2018-06-30T23:07:59.905Z,569
2018-06-30T23:09:07.244Z,570
2018-06-30T23:10:15.151Z,569
2018-06-30T23:11:22.763Z,570
2018-06-30T23:12:30.674Z,570
2018-06-30T23:13:38.291Z,570
2018-06-30T23:14:46.192Z,569
2018-06-30T23:15:54.080Z,569
2018-06-30T23:17:01.985Z,569
2018-06-30T23:18:09.888Z,569
2018-06-30T23:19:17.801Z,569
2018-06-30T23:20:25.419Z,568
2018-06-30T23:21:33.324Z,568
2018-06-30T23:22:41.210Z,569
2018-06-30T23:23:48.846Z,569
2018-06-30T23:24:56.733Z,568
2018-06-30T23:26:04.632Z,568
2018-06-30T23:27:12.242Z,568
2018-06-30T23:28:20.147Z,568
2018-06-30T23:29:27.782Z,567
2018-06-30T23:30:35.685Z,568
2018-06-30T23:31:43.579Z,568
2018-06-30T23:32:51.476Z,568
2018-06-30T23:33:59.371Z,569
2018-06-30T23:35:07.272Z,568
2018-06-30T23:36:15.157Z,569
2018-06-30T23:37:23.064Z,568
2018-06-30T23:38:30.955Z,568
2018-06-30T23:39:38.858Z,567
2018-06-30T23:40:46.757Z,567
2018-06-30T23:41:54.649Z,567
2018-06-30T23:43:02.538Z,568
2018-06-30T23:44:10.440Z,568
2018-06-30T23:45:18.067Z,568
2018-06-30T23:46:25.968Z,568
2018-06-30T23:47:33.855Z,568
2018-06-30T23:48:41.480Z,569
2018-06-30T23:49:49.370Z,568
2018-06-30T23:50:57.275Z,568
2018-06-30T23:52:04.992Z,568
2018-06-30T23:53:12.897Z,569
2018-06-30T23:54:20.784Z,568
2018-06-30T23:55:28.691Z,568
2018-06-30T23:56:36.577Z,568
2018-06-30T23:57:44.478Z,568
2018-06-30T23:58:52.364Z,568
